Time;durP1;ratioP1;P1;durP2;ratioP2;P2;SDS_P1;SDS_P2;PMS_P1;PMS_P2;Temp;Humidity;BMP_temperature;BMP_pressure;BME280_temperature;BME280_humidity;BME280_pressure;Samples;Min_cycle;Max_cycle;Signal;HPM_P1;HPM_P2
2021/12/24 00:00:19;;;;;;;22.17;9.98;;;;;;;;;;2403239;56;21502;-77
2021/12/24 00:02:47;;;;;;;22.13;10.85;;;;;;;;;;2403619;56;21028;-78
2021/12/24 00:05:14;;;;;;;15.95;8.85;;;;;;;;;;2403602;56;21578;-78
2021/12/24 00:07:41;;;;;;;25.37;11.65;;;;;;;;;;2403772;56;21028;-78
2021/12/24 00:10:10;;;;;;;20.60;9.90;;;;;;;;;;2403296;56;21020;-77
2021/12/24 00:12:42;;;;;;;19.45;9.48;;;;;;;;;;2403597;56;21526;-78
2021/12/24 00:15:26;;;;;;;24.02;10.52;;;;;;;;;;2403978;56;21088;-78
2021/12/24 00:18:00;;;;;;;27.60;11.50;;;;;;;;;;2404276;56;21023;-78
2021/12/24 00:21:14;;;;;;;18.35;9.68;;;;;;;;;;2403202;56;21118;-78
2021/12/24 00:35:12;;;;;;;31.58;13.38;;;;;;;;;;2404483;56;20984;-78
2021/12/24 00:37:40;;;;;;;19.90;10.75;;;;;;;;;;2404832;56;21036;-79
2021/12/24 00:40:16;;;;;;;19.10;9.10;;;;;;;;;;2664364;52;21032;-78
2021/12/24 00:42:45;;;;;;;23.60;9.98;;;;;;;;;;2664440;52;21096;-78
2021/12/24 00:45:12;;;;;;;18.87;10.13;;;;;;;;;;2664573;52;21223;-78
2021/12/24 00:47:39;;;;;;;16.60;9.43;;;;;;;;;;2403975;56;21115;-78
2021/12/24 00:50:11;;;;;;;14.27;7.87;;;;;;;;;;2401579;56;21041;-79
2021/12/24 00:52:48;;;;;;;16.92;8.25;;;;;;;;;;2664815;52;21095;-78
2021/12/24 00:55:15;;;;;;;18.33;9.38;;;;;;;;;;2403930;56;21056;-76
2021/12/24 00:57:44;;;;;;;12.95;7.85;;;;;;;;;;2404415;56;21215;-78
2021/12/24 01:00:13;;;;;;;14.50;7.72;;;;;;;;;;2404038;56;21104;-78
2021/12/24 01:02:41;;;;;;;12.25;7.40;;;;;;;;;;2663450;52;21087;-77
2021/12/24 01:05:09;;;;;;;12.93;7.43;;;;;;;;;;2663777;52;21539;-77
2021/12/24 01:07:36;;;;;;;14.43;7.85;;;;;;;;;;2402507;56;21060;-77
2021/12/24 01:10:04;;;;;;;10.95;6.70;;;;;;;;;;2403756;56;21637;-77
2021/12/24 01:12:31;;;;;;;10.57;6.62;;;;;;;;;;2663874;52;22234;-78
2021/12/24 01:14:58;;;;;;;14.15;6.65;;;;;;;;;;2664212;52;21100;-77
2021/12/24 01:17:35;;;;;;;10.60;5.68;;;;;;;;;;2403554;56;21110;-77
2021/12/24 01:20:08;;;;;;;12.23;6.60;;;;;;;;;;2403546;56;21039;-77
2021/12/24 01:25:31;;;;;;;11.23;6.45;;;;;;;;;;2355254;56;21166;-77
2021/12/24 01:28:26;;;;;;;17.00;8.55;;;;;;;;;;2403266;56;21032;-77
2021/12/24 01:39:15;;;;;;;10.35;6.12;;;;;;;;;;2403422;56;20984;-76
2021/12/24 01:44:28;;;;;;;11.38;6.65;;;;;;;;;;2403746;56;20968;-77
2021/12/24 01:46:56;;;;;;;12.07;6.68;;;;;;;;;;2404316;56;21044;-77
2021/12/24 01:49:23;;;;;;;18.52;7.93;;;;;;;;;;2404152;56;21044;-76
2021/12/24 01:51:50;;;;;;;17.33;8.32;;;;;;;;;;2404066;56;21092;-76
2021/12/24 01:54:18;;;;;;;11.02;6.97;;;;;;;;;;2664340;52;21605;-77
2021/12/24 01:56:45;;;;;;;16.83;7.72;;;;;;;;;;2404142;56;21032;-76
2021/12/24 01:59:12;;;;;;;14.93;8.52;;;;;;;;;;2403691;56;21123;-76
2021/12/24 02:01:39;;;;;;;13.38;7.05;;;;;;;;;;2663589;52;21087;-75
2021/12/24 02:04:07;;;;;;;15.93;8.43;;;;;;;;;;2403686;56;21052;-75
2021/12/24 02:06:34;;;;;;;16.17;8.55;;;;;;;;;;2403687;56;21079;-76
2021/12/24 02:09:01;;;;;;;16.52;8.15;;;;;;;;;;2663198;52;21609;-75
2021/12/24 02:11:29;;;;;;;16.98;7.65;;;;;;;;;;2663807;52;21020;-76
2021/12/24 02:13:56;;;;;;;26.87;9.90;;;;;;;;;;2403854;56;21100;-75
2021/12/24 02:16:38;;;;;;;14.68;8.05;;;;;;;;;;2404075;56;21064;-75
2021/12/24 02:30:09;;;;;;;19.02;9.85;;;;;;;;;;2403541;56;21059;-75
2021/12/24 02:32:40;;;;;;;15.63;8.70;;;;;;;;;;2663754;52;21048;-76
2021/12/24 02:35:07;;;;;;;21.23;9.57;;;;;;;;;;2403533;56;21024;-76
2021/12/24 02:37:34;;;;;;;22.95;10.45;;;;;;;;;;2403835;56;21108;-76
2021/12/24 02:40:01;;;;;;;20.10;8.82;;;;;;;;;;2403209;56;21115;-76
2021/12/24 02:42:29;;;;;;;16.27;8.55;;;;;;;;;;2403549;56;21542;-76
2021/12/24 02:44:57;;;;;;;18.12;9.02;;;;;;;;;;2663925;52;21124;-75
2021/12/24 02:55:41;;;;;;;20.40;9.68;;;;;;;;;;2403906;56;20968;-76
2021/12/24 02:58:08;;;;;;;20.98;9.15;;;;;;;;;;2404252;56;21511;-76
2021/12/24 03:00:35;;;;;;;17.52;9.20;;;;;;;;;;2403607;56;21044;-76
2021/12/24 03:03:02;;;;;;;12.98;8.25;;;;;;;;;;2664297;52;21616;-75
2021/12/24 03:05:29;;;;;;;19.60;10.27;;;;;;;;;;2663575;52;21063;-76
2021/12/24 03:07:56;;;;;;;29.35;10.88;;;;;;;;;;2402851;56;21068;-76
2021/12/24 03:10:23;;;;;;;18.55;10.52;;;;;;;;;;2662892;52;21546;-76
2021/12/24 03:12:52;;;;;;;23.15;10.40;;;;;;;;;;2403003;56;21040;-76
2021/12/24 03:15:22;;;;;;;22.90;11.07;;;;;;;;;;2403642;56;21182;-76
2021/12/24 03:17:50;;;;;;;20.77;9.85;;;;;;;;;;2403416;56;21020;-76
2021/12/24 03:20:17;;;;;;;20.80;10.07;;;;;;;;;;2403689;56;21036;-75
2021/12/24 03:22:50;;;;;;;15.15;8.30;;;;;;;;;;2663825;52;21500;-79
2021/12/24 03:25:18;;;;;;;17.00;8.98;;;;;;;;;;2403950;56;21083;-78
2021/12/24 03:27:45;;;;;;;11.73;7.40;;;;;;;;;;2403657;56;21107;-78
2021/12/24 03:30:13;;;;;;;15.10;8.65;;;;;;;;;;2403215;56;21032;-79
2021/12/24 03:32:40;;;;;;;21.83;9.50;;;;;;;;;;2403901;56;21183;-78
2021/12/24 03:35:08;;;;;;;10.63;6.30;;;;;;;;;;2403906;56;21096;-78
2021/12/24 03:37:35;;;;;;;22.58;9.68;;;;;;;;;;2403838;56;21033;-78
2021/12/24 03:40:02;;;;;;;12.68;7.15;;;;;;;;;;2663239;52;21578;-78
2021/12/24 03:42:29;;;;;;;14.98;7.07;;;;;;;;;;2403928;56;21076;-78
2021/12/24 03:45:05;;;;;;;14.98;8.77;;;;;;;;;;2403981;56;21028;-78
2021/12/24 03:47:37;;;;;;;16.25;7.95;;;;;;;;;;2403903;56;21060;-79
2021/12/24 03:50:08;;;;;;;11.95;6.05;;;;;;;;;;2403509;56;21060;-78
2021/12/24 03:53:00;;;;;;;11.32;7.20;;;;;;;;;;2403916;56;21039;-78
2021/12/24 03:55:27;;;;;;;19.48;9.38;;;;;;;;;;2403983;56;21056;-77
2021/12/24 03:57:55;;;;;;;14.13;7.75;;;;;;;;;;2403411;56;21028;-77
2021/12/24 04:00:23;;;;;;;13.27;7.12;;;;;;;;;;2402937;56;21040;-76
2021/12/24 04:02:50;;;;;;;14.90;7.25;;;;;;;;;;2403580;56;21155;-76
2021/12/24 04:05:17;;;;;;;12.80;6.47;;;;;;;;;;2403874;56;21519;-76
2021/12/24 04:07:44;;;;;;;8.88;5.45;;;;;;;;;;2664038;52;21020;-77
2021/12/24 04:10:20;;;;;;;9.82;6.35;;;;;;;;;;2402996;56;21245;-76
2021/12/24 04:12:47;;;;;;;9.98;6.55;;;;;;;;;;2403215;56;21099;-76
2021/12/24 04:15:14;;;;;;;12.88;7.57;;;;;;;;;;2403244;56;21056;-76
2021/12/24 04:17:43;;;;;;;8.68;5.45;;;;;;;;;;2403496;56;21013;-76
2021/12/24 04:25:41;;;;;;;12.80;6.25;;;;;;;;;;2403100;56;20984;-78
2021/12/24 04:28:08;;;;;;;14.02;7.05;;;;;;;;;;2403753;56;21017;-77
2021/12/24 04:30:42;;;;;;;14.77;7.57;;;;;;;;;;2402738;56;21040;-77
2021/12/24 04:33:15;;;;;;;;;;;;;;;;;;2407332;56;21012;-77
2021/12/24 04:35:45;;;;;;;15.93;7.50;;;;;;;;;;2404456;56;20064;-77
2021/12/24 04:52:29;;;;;;;13.75;7.57;;;;;;;;;;2402935;56;21031;-76
2021/12/24 05:03:26;;;;;;;13.00;6.93;;;;;;;;;;2403022;56;20956;-77
2021/12/24 05:06:06;;;;;;;21.55;9.50;;;;;;;;;;2402687;56;21024;-79
2021/12/24 05:08:40;;;;;;;15.10;8.48;;;;;;;;;;2387390;52;21098;-74
2021/12/24 05:11:10;;;;;;;13.50;7.68;;;;;;;;;;2374724;56;21039;-74
2021/12/24 05:13:39;;;;;;;18.17;9.48;;;;;;;;;;2387335;52;21027;-74
2021/12/24 05:16:16;;;;;;;24.05;9.13;;;;;;;;;;2486095;52;21086;-74
2021/12/24 05:19:04;;;;;;;16.98;8.93;;;;;;;;;;2374594;56;21023;-75
2021/12/24 05:21:36;;;;;;;19.58;9.43;;;;;;;;;;2444524;52;21019;-75
2021/12/24 05:24:04;;;;;;;16.75;9.48;;;;;;;;;;2374996;56;21104;-74
2021/12/24 05:26:32;;;;;;;17.42;9.07;;;;;;;;;;2374194;56;20999;-76
2021/12/24 05:28:59;;;;;;;19.65;9.25;;;;;;;;;;2374495;56;21529;-77
2021/12/24 05:31:26;;;;;;;17.62;9.13;;;;;;;;;;2412437;52;21011;-77
2021/12/24 05:33:53;;;;;;;18.02;8.82;;;;;;;;;;2375032;56;21074;-77
2021/12/24 05:36:20;;;;;;;20.95;10.15;;;;;;;;;;2375059;56;21513;-77
2021/12/24 05:38:47;;;;;;;16.95;8.90;;;;;;;;;;2374568;56;21023;-77
2021/12/24 05:41:15;;;;;;;22.67;10.70;;;;;;;;;;2374697;56;21146;-77
2021/12/24 05:43:42;;;;;;;16.98;8.25;;;;;;;;;;2374843;56;21023;-75
2021/12/24 05:46:09;;;;;;;18.77;8.10;;;;;;;;;;2478471;52;21031;-77
2021/12/24 05:48:36;;;;;;;10.40;5.68;;;;;;;;;;2374450;56;21498;-78
2021/12/24 05:51:03;;;;;;;13.68;5.60;;;;;;;;;;2373858;56;21003;-74
2021/12/24 05:53:30;;;;;;;7.68;4.20;;;;;;;;;;2392905;52;21026;-75
2021/12/24 05:55:57;;;;;;;9.82;5.12;;;;;;;;;;2374714;56;21011;-75
2021/12/24 05:58:25;;;;;;;13.55;5.20;;;;;;;;;;2373505;56;21027;-76
2021/12/24 06:00:52;;;;;;;6.10;4.32;;;;;;;;;;2372627;56;21039;-74
2021/12/24 06:03:19;;;;;;;10.55;4.22;;;;;;;;;;2374790;56;21035;-74
2021/12/24 06:05:47;;;;;;;5.37;3.85;;;;;;;;;;2374577;56;20988;-75
2021/12/24 06:08:14;;;;;;;12.82;5.82;;;;;;;;;;2381371;52;21094;-77
2021/12/24 06:10:42;;;;;;;7.22;4.22;;;;;;;;;;2379743;52;21015;-74
2021/12/24 06:13:09;;;;;;;9.18;4.30;;;;;;;;;;2374825;56;21059;-75
2021/12/24 06:15:42;;;;;;;58.28;8.98;;;;;;;;;;2392538;52;21016;-74
2021/12/24 06:18:13;;;;;;;8.65;4.32;;;;;;;;;;2401529;52;21014;-77
2021/12/24 06:20:41;;;;;;;10.90;4.62;;;;;;;;;;2374552;56;21035;-75
2021/12/24 06:23:09;;;;;;;8.95;5.00;;;;;;;;;;2374875;56;21086;-77
2021/12/24 06:25:36;;;;;;;11.48;5.37;;;;;;;;;;2375293;56;21019;-77
2021/12/24 06:28:04;;;;;;;9.55;4.20;;;;;;;;;;2374946;56;21011;-75
2021/12/24 06:30:31;;;;;;;10.32;4.72;;;;;;;;;;2374940;56;21023;-75
2021/12/24 06:32:58;;;;;;;9.35;4.07;;;;;;;;;;2374479;56;22344;-75
2021/12/24 06:35:26;;;;;;;9.73;4.78;;;;;;;;;;2374556;56;21075;-75
2021/12/24 06:37:53;;;;;;;10.07;4.93;;;;;;;;;;2375335;56;21031;-77
2021/12/24 06:40:21;;;;;;;12.73;5.70;;;;;;;;;;2374382;56;21007;-77
2021/12/24 06:42:48;;;;;;;9.95;4.47;;;;;;;;;;2375237;56;21075;-77
2021/12/24 06:45:19;;;;;;;8.18;4.47;;;;;;;;;;2374847;56;21019;-77
2021/12/24 06:47:46;;;;;;;10.68;5.57;;;;;;;;;;2375246;56;21023;-77
2021/12/24 06:50:14;;;;;;;11.57;5.43;;;;;;;;;;2375052;56;21027;-76
2021/12/24 06:52:41;;;;;;;9.30;4.40;;;;;;;;;;2415514;52;21505;-77
2021/12/24 06:55:10;;;;;;;8.35;4.68;;;;;;;;;;2374979;56;21019;-77
2021/12/24 06:57:37;;;;;;;10.63;5.07;;;;;;;;;;2375047;56;21023;-75
2021/12/24 07:00:06;;;;;;;10.10;5.30;;;;;;;;;;2372141;56;21027;-75
2021/12/24 07:02:33;;;;;;;17.17;6.32;;;;;;;;;;2373980;56;21599;-77
2021/12/24 07:05:00;;;;;;;11.40;5.72;;;;;;;;;;2407952;52;21011;-76
2021/12/24 07:07:27;;;;;;;8.70;4.62;;;;;;;;;;2374404;56;21524;-77
2021/12/24 07:09:54;;;;;;;11.50;5.43;;;;;;;;;;2373667;52;21087;-77
2021/12/24 07:12:21;;;;;;;10.98;5.62;;;;;;;;;;2375260;56;21031;-75
2021/12/24 07:14:49;;;;;;;11.45;5.93;;;;;;;;;;2375011;56;21027;-74
2021/12/24 07:17:16;;;;;;;12.00;5.65;;;;;;;;;;2374743;56;21077;-74
2021/12/24 07:19:43;;;;;;;11.05;6.43;;;;;;;;;;2375281;52;21112;-76
2021/12/24 07:22:12;;;;;;;13.93;6.25;;;;;;;;;;2408170;52;21074;-74
2021/12/24 07:24:39;;;;;;;8.35;4.75;;;;;;;;;;2374928;56;21090;-76
2021/12/24 07:27:07;;;;;;;10.93;5.40;;;;;;;;;;2375080;56;21047;-75
2021/12/24 07:29:34;;;;;;;10.45;5.35;;;;;;;;;;2374157;56;21110;-76
2021/12/24 07:32:01;;;;;;;8.52;4.60;;;;;;;;;;2375243;56;21038;-76
2021/12/24 07:34:28;;;;;;;11.02;5.47;;;;;;;;;;2374935;56;21086;-74
2021/12/24 07:36:55;;;;;;;8.05;5.57;;;;;;;;;;2375195;56;21015;-76
2021/12/24 07:39:22;;;;;;;9.20;5.40;;;;;;;;;;2373669;56;21015;-77
2021/12/24 07:41:49;;;;;;;9.90;5.55;;;;;;;;;;2374715;56;21043;-75
2021/12/24 07:44:18;;;;;;;9.48;5.93;;;;;;;;;;2374851;56;21340;-75
2021/12/24 07:46:49;;;;;;;7.82;5.35;;;;;;;;;;2375045;56;21342;-75
2021/12/24 07:49:30;;;;;;;10.35;5.70;;;;;;;;;;2374511;56;21091;-77
2021/12/24 07:52:03;;;;;;;9.45;5.20;;;;;;;;;;2374849;56;21395;-77
2021/12/24 07:54:31;;;;;;;10.52;6.03;;;;;;;;;;2375254;56;21549;-77
2021/12/24 07:56:59;;;;;;;9.50;5.10;;;;;;;;;;2374034;56;21086;-75
2021/12/24 07:59:27;;;;;;;7.20;5.03;;;;;;;;;;2441831;52;21015;-77
2021/12/24 08:01:55;;;;;;;8.52;5.07;;;;;;;;;;2374391;56;21118;-75
2021/12/24 08:04:22;;;;;;;7.95;5.05;;;;;;;;;;2374107;56;22301;-75
2021/12/24 08:06:49;;;;;;;7.90;5.30;;;;;;;;;;2374024;56;21031;-75
2021/12/24 08:09:16;;;;;;;9.93;6.18;;;;;;;;;;2374527;56;21019;-77
2021/12/24 08:11:43;;;;;;;10.43;6.43;;;;;;;;;;2374265;56;21027;-77
2021/12/24 08:14:10;;;;;;;9.75;6.70;;;;;;;;;;2374545;56;21035;-76
2021/12/24 08:16:37;;;;;;;12.57;7.35;;;;;;;;;;2377116;52;21656;-76
2021/12/24 08:19:04;;;;;;;17.37;10.18;;;;;;;;;;2377236;52;21030;-77
2021/12/24 08:21:31;;;;;;;17.50;9.10;;;;;;;;;;2375184;56;21028;-77
2021/12/24 08:23:58;;;;;;;12.52;6.85;;;;;;;;;;2374394;56;21015;-77
2021/12/24 08:26:26;;;;;;;10.43;5.90;;;;;;;;;;2375212;56;21023;-74
2021/12/24 08:28:53;;;;;;;10.82;6.28;;;;;;;;;;2374648;56;21015;-77
2021/12/24 08:31:20;;;;;;;8.32;5.43;;;;;;;;;;2493749;52;21154;-75
2021/12/24 08:33:47;;;;;;;11.07;7.15;;;;;;;;;;2374477;56;21015;-77
2021/12/24 08:36:14;;;;;;;10.57;6.60;;;;;;;;;;2375117;56;21101;-78
2021/12/24 08:38:41;;;;;;;10.13;6.37;;;;;;;;;;2455567;52;21090;-78
2021/12/24 08:41:08;;;;;;;13.38;8.13;;;;;;;;;;2374980;56;21019;-77
2021/12/24 08:43:35;;;;;;;12.80;7.00;;;;;;;;;;2374972;56;21153;-77
2021/12/24 08:46:02;;;;;;;9.98;6.62;;;;;;;;;;2374740;56;20999;-76
2021/12/24 08:48:29;;;;;;;8.65;5.87;;;;;;;;;;2374669;56;21040;-75
2021/12/24 08:50:56;;;;;;;11.52;6.62;;;;;;;;;;2374411;56;21618;-75
2021/12/24 08:53:23;;;;;;;10.13;6.45;;;;;;;;;;2406025;52;21019;-74
2021/12/24 08:55:50;;;;;;;11.50;6.53;;;;;;;;;;2462986;52;21419;-78
2021/12/24 08:58:17;;;;;;;9.35;6.18;;;;;;;;;;2375605;56;21019;-77
2021/12/24 09:00:44;;;;;;;9.77;7.03;;;;;;;;;;2374865;56;21023;-75
2021/12/24 09:03:11;;;;;;;12.23;7.70;;;;;;;;;;2375417;56;21042;-77
2021/12/24 09:05:38;;;;;;;10.00;6.40;;;;;;;;;;2374505;56;21098;-77
2021/12/24 09:08:07;;;;;;;10.45;6.07;;;;;;;;;;2374152;56;21031;-77
2021/12/24 09:10:35;;;;;;;10.73;6.75;;;;;;;;;;2386451;52;21102;-77
2021/12/24 09:13:02;;;;;;;12.43;6.75;;;;;;;;;;2398309;52;21003;-77
2021/12/24 09:15:30;;;;;;;13.23;7.40;;;;;;;;;;2374737;56;21035;-75
2021/12/24 09:17:59;;;;;;;10.57;7.00;;;;;;;;;;2373860;56;21490;-77
2021/12/24 09:20:30;;;;;;;15.80;7.87;;;;;;;;;;2373867;56;21015;-77
2021/12/24 09:23:00;;;;;;;13.20;7.40;;;;;;;;;;2373978;56;21003;-75
2021/12/24 09:25:27;;;;;;;13.80;7.68;;;;;;;;;;2375166;56;21035;-77
2021/12/24 09:27:54;;;;;;;14.15;7.93;;;;;;;;;;2374980;56;21043;-75
2021/12/24 09:30:21;;;;;;;14.05;8.40;;;;;;;;;;2374474;56;21030;-75
2021/12/24 09:32:48;;;;;;;15.07;9.05;;;;;;;;;;2375310;56;21070;-74
2021/12/24 09:35:16;;;;;;;12.82;7.25;;;;;;;;;;2374959;56;21027;-74
2021/12/24 09:37:43;;;;;;;12.55;7.70;;;;;;;;;;2375421;56;21087;-75
2021/12/24 09:40:12;;;;;;;13.25;7.93;;;;;;;;;;2374144;56;21011;-75
2021/12/24 09:42:39;;;;;;;13.82;8.07;;;;;;;;;;2374737;56;21079;-77
2021/12/24 09:45:08;;;;;;;15.45;8.35;;;;;;;;;;2375361;56;21019;-75
2021/12/24 09:47:35;;;;;;;12.48;7.43;;;;;;;;;;2374727;56;21087;-77
2021/12/24 09:50:02;;;;;;;15.15;8.73;;;;;;;;;;2374779;56;21023;-75
2021/12/24 09:52:30;;;;;;;17.92;9.18;;;;;;;;;;2375074;56;21545;-77
2021/12/24 09:54:57;;;;;;;15.15;7.15;;;;;;;;;;2375512;56;21023;-76
2021/12/24 09:57:24;;;;;;;18.67;11.43;;;;;;;;;;2375277;56;21031;-76
2021/12/24 09:59:51;;;;;;;15.27;8.95;;;;;;;;;;2374455;56;21154;-75
2021/12/24 10:02:25;;;;;;;19.20;10.80;;;;;;;;;;2375177;56;21014;-76
2021/12/24 10:04:51;;;;;;;;;;;;;;;;;;2378696;56;21099;-74
2021/12/24 10:07:20;;;;;;;18.23;9.82;;;;;;;;;;2374735;56;20069;-74
2021/12/24 10:09:49;;;;;;;19.48;11.02;;;;;;;;;;2374797;56;21075;-75
2021/12/24 10:12:18;;;;;;;32.65;15.85;;;;;;;;;;2375437;56;21011;-74
2021/12/24 10:14:49;;;;;;;20.90;11.68;;;;;;;;;;2375366;56;21082;-74
2021/12/24 10:17:18;;;;;;;16.67;9.15;;;;;;;;;;2467851;52;21458;-74
2021/12/24 10:19:46;;;;;;;14.48;8.88;;;;;;;;;;2374839;56;21082;-76
2021/12/24 10:22:14;;;;;;;16.08;9.30;;;;;;;;;;2414855;52;21145;-76
2021/12/24 10:24:41;;;;;;;18.17;10.32;;;;;;;;;;2375357;56;21035;-76
2021/12/24 10:27:08;;;;;;;13.60;8.05;;;;;;;;;;2374481;56;21137;-77
2021/12/24 10:29:37;;;;;;;12.18;7.18;;;;;;;;;;2374704;56;21090;-76
2021/12/24 10:32:10;;;;;;;15.68;8.48;;;;;;;;;;2375428;56;21074;-76
2021/12/24 10:34:37;;;;;;;15.95;8.32;;;;;;;;;;2375359;56;21034;-74
2021/12/24 10:37:12;;;;;;;17.87;10.55;;;;;;;;;;2375226;56;21017;-76
2021/12/24 10:39:58;;;;;;;16.33;8.05;;;;;;;;;;2374959;56;21533;-75
2021/12/24 10:42:28;;;;;;;16.02;7.87;;;;;;;;;;2375328;56;21039;-74
2021/12/24 10:44:56;;;;;;;12.27;7.65;;;;;;;;;;2375230;56;21090;-76
2021/12/24 10:47:26;;;;;;;12.65;7.30;;;;;;;;;;2375091;56;21575;-76
2021/12/24 10:50:08;;;;;;;11.52;7.28;;;;;;;;;;2374860;56;21580;-76
2021/12/24 10:55:46;;;;;;;11.27;7.18;;;;;;;;;;2375155;56;21664;-75
2021/12/24 10:58:15;;;;;;;9.65;6.35;;;;;;;;;;2375092;56;21030;-75
2021/12/24 11:00:45;;;;;;;10.07;6.60;;;;;;;;;;2374691;56;21157;-75
2021/12/24 11:03:15;;;;;;;9.75;6.37;;;;;;;;;;2374743;56;21110;-75
2021/12/24 11:05:43;;;;;;;11.70;7.00;;;;;;;;;;2375312;56;21074;-74
2021/12/24 11:08:11;;;;;;;12.32;7.40;;;;;;;;;;2367003;53;69497;-81
2021/12/24 11:10:39;;;;;;;13.48;7.15;;;;;;;;;;2597025;53;21069;-81
2021/12/24 11:13:11;;;;;;;12.23;7.82;;;;;;;;;;2593870;53;68385;-79
2021/12/24 11:15:39;;;;;;;12.75;7.82;;;;;;;;;;2350391;57;21108;-79
2021/12/24 11:18:07;;;;;;;12.63;7.20;;;;;;;;;;2350640;57;21046;-79
2021/12/24 11:20:35;;;;;;;12.63;7.40;;;;;;;;;;2596065;53;21164;-79
2021/12/24 11:23:05;;;;;;;13.18;7.22;;;;;;;;;;2348730;57;21054;-79
2021/12/24 11:25:33;;;;;;;10.27;6.30;;;;;;;;;;2348428;57;21054;-79
2021/12/24 11:28:02;;;;;;;18.85;8.35;;;;;;;;;;2595466;53;21909;-79
2021/12/24 11:30:29;;;;;;;17.55;8.95;;;;;;;;;;2593488;53;21092;-79
2021/12/24 11:32:59;;;;;;;15.43;9.32;;;;;;;;;;2347298;57;21858;-79
2021/12/24 11:35:27;;;;;;;12.90;7.68;;;;;;;;;;2347540;57;21112;-79
2021/12/24 11:37:54;;;;;;;13.80;8.32;;;;;;;;;;2594487;53;21042;-78
2021/12/24 11:40:23;;;;;;;14.57;7.82;;;;;;;;;;2347009;57;21049;-79
2021/12/24 11:42:52;;;;;;;16.85;9.27;;;;;;;;;;2594559;53;21075;-78
2021/12/24 11:45:24;;;;;;;16.48;8.95;;;;;;;;;;2348379;57;21109;-79
2021/12/24 11:47:51;;;;;;;18.50;10.15;;;;;;;;;;2594253;53;21042;-78
2021/12/24 11:50:18;;;;;;;16.27;8.52;;;;;;;;;;2347238;57;21097;-79
2021/12/24 11:52:48;;;;;;;13.57;8.27;;;;;;;;;;2346445;57;22124;-80
2021/12/24 11:55:16;;;;;;;13.27;8.15;;;;;;;;;;2594645;53;21057;-79
2021/12/24 11:57:57;;;;;;;14.52;8.88;;;;;;;;;;2347082;57;21042;-78
2021/12/24 12:00:26;;;;;;;14.55;8.15;;;;;;;;;;2593929;53;21074;-78
2021/12/24 12:02:53;;;;;;;15.65;9.80;;;;;;;;;;2347361;57;21050;-78
2021/12/24 12:05:23;;;;;;;17.20;9.63;;;;;;;;;;2347428;57;21065;-78
2021/12/24 12:07:51;;;;;;;17.48;9.75;;;;;;;;;;2345985;57;21018;-78
2021/12/24 12:10:37;;;;;;;12.00;6.97;;;;;;;;;;2346649;57;21098;-80
2021/12/24 12:13:04;;;;;;;14.00;7.75;;;;;;;;;;2347109;57;21065;-78
2021/12/24 12:15:31;;;;;;;14.90;8.63;;;;;;;;;;2593444;53;21077;-80
2021/12/24 12:17:59;;;;;;;15.15;8.60;;;;;;;;;;2346963;57;21177;-79
2021/12/24 12:20:41;;;;;;;15.40;8.27;;;;;;;;;;2347227;57;21041;-78
2021/12/24 12:23:45;;;;;;;14.73;8.63;;;;;;;;;;2594491;53;21058;-79
2021/12/24 12:26:32;;;;;;;18.75;10.13;;;;;;;;;;2594389;53;21546;-79
2021/12/24 12:29:19;;;;;;;24.63;12.48;;;;;;;;;;2594696;53;21073;-78
2021/12/24 12:31:46;;;;;;;16.27;9.23;;;;;;;;;;2594487;53;21109;-78
2021/12/24 12:34:32;;;;;;;19.70;10.05;;;;;;;;;;2347123;57;21050;-79
2021/12/24 12:37:11;;;;;;;14.35;8.57;;;;;;;;;;2347059;57;21090;-78
2021/12/24 12:39:39;;;;;;;25.75;12.52;;;;;;;;;;2346891;57;21109;-78
2021/12/24 12:42:06;;;;;;;21.83;10.63;;;;;;;;;;2347359;57;21098;-79
2021/12/24 12:44:34;;;;;;;17.62;9.43;;;;;;;;;;2347206;57;21054;-81
2021/12/24 12:47:09;;;;;;;23.17;12.63;;;;;;;;;;2347465;57;21042;-81
2021/12/24 12:49:36;;;;;;;20.85;11.73;;;;;;;;;;2594848;53;21022;-80
2021/12/24 12:52:06;;;;;;;20.30;11.98;;;;;;;;;;2594361;53;21089;-81
2021/12/24 12:54:41;;;;;;;23.55;12.15;;;;;;;;;;2594525;53;21038;-80
2021/12/24 12:57:09;;;;;;;28.05;13.75;;;;;;;;;;2594730;53;21038;-81
2021/12/24 12:59:37;;;;;;;39.25;16.08;;;;;;;;;;2346814;57;21062;-80
2021/12/24 13:02:04;;;;;;;28.92;14.85;;;;;;;;;;2593490;53;21358;-78
2021/12/24 13:04:31;;;;;;;38.58;18.02;;;;;;;;;;2345493;57;21101;-80
2021/12/24 13:06:59;;;;;;;47.00;18.37;;;;;;;;;;2347652;57;21057;-80
2021/12/24 13:09:32;;;;;;;39.97;18.65;;;;;;;;;;2346854;57;21648;-79
2021/12/24 13:12:00;;;;;;;35.92;17.05;;;;;;;;;;2347406;57;21014;-80
2021/12/24 13:14:28;;;;;;;34.05;14.40;;;;;;;;;;2594545;53;21050;-81
2021/12/24 13:17:16;;;;;;;38.00;16.85;;;;;;;;;;2594345;53;21096;-80
2021/12/24 13:22:30;;;;;;;45.00;19.95;;;;;;;;;;2347305;57;21441;-80
2021/12/24 13:24:59;;;;;;;43.87;18.50;;;;;;;;;;2346769;57;21065;-81
2021/12/24 13:27:28;;;;;;;45.78;20.02;;;;;;;;;;2347323;57;21054;-81
2021/12/24 13:30:06;;;;;;;44.40;18.55;;;;;;;;;;2593926;53;21097;-80
2021/12/24 13:32:37;;;;;;;60.05;23.87;;;;;;;;;;2346956;57;21540;-79
2021/12/24 13:35:04;;;;;;;52.90;23.50;;;;;;;;;;2594064;53;21196;-80
2021/12/24 13:37:32;;;;;;;43.35;19.80;;;;;;;;;;2347186;57;21527;-79
2021/12/24 13:39:59;;;;;;;49.35;21.27;;;;;;;;;;2346410;57;21101;-80
2021/12/24 13:42:26;;;;;;;43.17;18.73;;;;;;;;;;2346677;57;21564;-80
2021/12/24 13:45:00;;;;;;;47.85;21.10;;;;;;;;;;2346439;57;21121;-80
2021/12/24 13:47:33;;;;;;;40.80;17.67;;;;;;;;;;2346346;57;21172;-79
2021/12/24 13:50:31;;;;;;;39.72;17.17;;;;;;;;;;2346223;57;21094;-80
2021/12/24 13:55:46;;;;;;;51.65;22.65;;;;;;;;;;2347086;57;22525;-80
2021/12/24 13:58:15;;;;;;;53.20;22.35;;;;;;;;;;2346960;57;21062;-80
2021/12/24 14:03:48;;;;;;;47.92;20.52;;;;;;;;;;2563629;53;20906;-80
2021/12/24 14:06:15;;;;;;;43.45;19.55;;;;;;;;;;2594360;53;21029;-80
2021/12/24 14:08:42;;;;;;;52.95;22.95;;;;;;;;;;2346392;57;21042;-80
2021/12/24 14:11:11;;;;;;;47.38;22.02;;;;;;;;;;2347166;57;21121;-80
2021/12/24 14:13:41;;;;;;;42.10;17.55;;;;;;;;;;2346934;57;21042;-80
2021/12/24 14:16:16;;;;;;;38.10;15.45;;;;;;;;;;2347263;57;21026;-80
2021/12/24 14:18:48;;;;;;;33.13;13.32;;;;;;;;;;2593841;53;21078;-80
2021/12/24 14:24:10;;;;;;;29.37;13.48;;;;;;;;;;2346748;57;20973;-80
2021/12/24 14:26:38;;;;;;;31.30;13.43;;;;;;;;;;2347200;57;21038;-79
2021/12/24 14:29:06;;;;;;;27.87;12.73;;;;;;;;;;2345986;57;22117;-80
2021/12/24 14:31:47;;;;;;;33.53;13.93;;;;;;;;;;2594017;53;21065;-81
2021/12/24 14:34:28;;;;;;;21.30;9.85;;;;;;;;;;2346743;57;21056;-81
2021/12/24 14:36:58;;;;;;;23.75;8.77;;;;;;;;;;2347349;57;21093;-80
2021/12/24 14:39:25;;;;;;;21.42;8.82;;;;;;;;;;2346351;57;21041;-80
2021/12/24 14:42:09;;;;;;;23.62;9.23;;;;;;;;;;2593617;53;21034;-80
2021/12/24 14:44:36;;;;;;;19.20;8.80;;;;;;;;;;2346374;57;21050;-80
2021/12/24 14:47:04;;;;;;;17.83;7.55;;;;;;;;;;2347691;57;21560;-80
2021/12/24 14:49:35;;;;;;;12.57;5.65;;;;;;;;;;2594522;53;21596;-80
2021/12/24 14:52:19;;;;;;;11.95;5.85;;;;;;;;;;2347380;57;21583;-80
2021/12/24 14:55:04;;;;;;;11.57;4.53;;;;;;;;;;2347689;57;21073;-79
2021/12/24 14:57:32;;;;;;;8.30;3.75;;;;;;;;;;2347770;57;21117;-80
2021/12/24 15:00:05;;;;;;;13.45;4.28;;;;;;;;;;2594290;53;21086;-80
2021/12/24 15:02:32;;;;;;;5.00;2.08;;;;;;;;;;2594610;53;21591;-79
2021/12/24 15:04:59;;;;;;;5.30;2.22;;;;;;;;;;2347769;57;22142;-79
2021/12/24 15:07:32;;;;;;;5.82;2.22;;;;;;;;;;2347301;57;21034;-79
2021/12/24 15:09:59;;;;;;;;;;;;;;;;;;2598156;53;21042;-80
2021/12/24 15:12:27;;;;;;;6.05;1.77;;;;;;;;;;2347716;57;20308;-79
2021/12/24 15:14:54;;;;;;;4.87;1.60;;;;;;;;;;2594750;53;21130;-79
2021/12/24 15:17:23;;;;;;;3.35;1.75;;;;;;;;;;2594539;53;21100;-80
2021/12/24 15:19:50;;;;;;;8.73;2.65;;;;;;;;;;2347043;57;21671;-79
2021/12/24 15:22:17;;;;;;;6.62;2.87;;;;;;;;;;2594082;53;21100;-79
2021/12/24 15:24:44;;;;;;;5.57;2.15;;;;;;;;;;2347177;57;21029;-79
2021/12/24 15:27:12;;;;;;;7.37;1.67;;;;;;;;;;2594771;53;21030;-79
2021/12/24 15:29:44;;;;;;;4.03;2.40;;;;;;;;;;2593925;53;21101;-79
2021/12/24 15:32:11;;;;;;;4.07;2.42;;;;;;;;;;2346817;57;21525;-79
2021/12/24 15:34:38;;;;;;;4.00;2.45;;;;;;;;;;2346772;57;21085;-80
2021/12/24 15:37:05;;;;;;;7.60;2.08;;;;;;;;;;2347414;57;21038;-79
2021/12/24 15:39:32;;;;;;;8.38;2.60;;;;;;;;;;2593533;53;21568;-79
2021/12/24 15:41:59;;;;;;;13.15;3.12;;;;;;;;;;2593363;53;21033;-79
2021/12/24 15:44:27;;;;;;;5.43;2.25;;;;;;;;;;2593582;53;21041;-81
2021/12/24 15:46:55;;;;;;;8.73;2.00;;;;;;;;;;2347296;57;21548;-79
2021/12/24 15:49:22;;;;;;;1.95;1.75;;;;;;;;;;2593735;53;21562;-80
2021/12/24 15:51:48;;;;;;;6.07;1.80;;;;;;;;;;2346923;57;21043;-80
2021/12/24 15:54:16;;;;;;;3.40;1.83;;;;;;;;;;2347096;57;21022;-79
2021/12/24 15:56:43;;;;;;;5.03;1.90;;;;;;;;;;2346806;57;21140;-81
2021/12/24 15:59:10;;;;;;;5.22;2.08;;;;;;;;;;2593087;53;21549;-79
2021/12/24 16:01:37;;;;;;;10.07;1.62;;;;;;;;;;2593819;53;21030;-81
2021/12/24 16:04:04;;;;;;;8.95;1.70;;;;;;;;;;2592887;53;21098;-80
2021/12/24 16:06:31;;;;;;;6.60;1.95;;;;;;;;;;2346693;57;21093;-81
2021/12/24 16:08:58;;;;;;;7.15;1.45;;;;;;;;;;2592990;53;21038;-79
2021/12/24 16:11:25;;;;;;;3.70;2.03;;;;;;;;;;2346425;57;21069;-81